Time;durP1;ratioP1;P1;durP2;ratioP2;P2;SDS_P1;SDS_P2;PMS_P1;PMS_P2;Temp;Humidity;BMP_temperature;BMP_pressure;BME280_temperature;BME280_humidity;BME280_pressure;Samples;Min_cycle;Max_cycle;Signal;HPM_P1;HPM_P2
2023/09/12 00:00:40;;;;;;;;;;;;;;;18.93;40.87;100277.41;4905904;28;98537;-68
2023/09/12 00:03:07;;;;;;;;;;;;;;;18.90;41.03;100281.59;4925034;28;98378;-68
2023/09/12 00:05:35;;;;;;;;;;;;;;;18.86;40.92;100281.47;4926768;28;98379;-68
2023/09/12 00:08:01;;;;;;;;;;;;;;;18.83;40.88;100271.19;4931118;28;99474;-68
2023/09/12 00:10:29;;;;;;;;;;;;;;;18.82;40.91;100282.44;4920534;28;98468;-68
2023/09/12 00:12:56;;;;;;;;;;;;;;;18.79;40.93;100281.16;4910941;28;97896;-75
2023/09/12 00:15:24;;;;;;;;;;;;;;;18.79;40.81;100286.63;4919733;28;98221;-75
2023/09/12 00:17:51;;;;;;;;;;;;;;;18.79;41.00;100280.38;4920807;28;98039;-68
2023/09/12 00:20:18;;;;;;;;;;;;;;;18.77;40.86;100283.41;4937003;28;97928;-68
2023/09/12 00:22:45;;;;;;;;;;;;;;;18.79;41.03;100280.38;4922869;28;98221;-75
2023/09/12 00:25:11;;;;;;;;;;;;;;;18.78;41.14;100279.53;4912253;28;99537;-68
2023/09/12 00:27:38;;;;;;;;;;;;;;;18.82;40.89;100285.16;4926071;28;98652;-68
2023/09/12 00:30:05;;;;;;;;;;;;;;;18.89;41.06;100282.72;4934039;28;100643;-75
2023/09/12 00:32:31;;;;;;;;;;;;;;;18.94;40.98;100273.53;4909930;28;100756;-68
2023/09/12 00:34:58;;;;;;;;;;;;;;;19.00;41.05;100278.50;4933398;28;98227;-68
2023/09/12 00:37:26;;;;;;;;;;;;;;;19.03;41.16;100274.34;4924203;28;98400;-75
2023/09/12 00:39:52;;;;;;;;;;;;;;;19.06;40.93;100282.66;4931520;28;98138;-68
2023/09/12 00:42:21;;;;;;;;;;;;;;;19.08;40.93;100287.78;4931572;28;99772;-75
2023/09/12 00:44:48;;;;;;;;;;;;;;;19.08;40.96;100282.31;4927694;28;98133;-75
2023/09/12 00:47:14;;;;;;;;;;;;;;;19.06;41.02;100271.75;4948303;28;98156;-75
2023/09/12 00:49:41;;;;;;;;;;;;;;;19.05;40.87;100266.59;4926378;28;98656;-71
2023/09/12 00:52:08;;;;;;;;;;;;;;;19.04;40.87;100271.25;4935558;28;97973;-75
2023/09/12 00:54:34;;;;;;;;;;;;;;;19.01;41.11;100276.56;4915372;28;98174;-68
2023/09/12 00:57:00;;;;;;;;;;;;;;;18.97;41.10;100273.69;4916639;28;98256;-68
2023/09/12 00:59:27;;;;;;;;;;;;;;;18.96;41.25;100274.03;4925263;28;98961;-68
2023/09/12 01:01:54;;;;;;;;;;;;;;;18.95;41.16;100272.44;4920919;28;100216;-68
2023/09/12 01:04:20;;;;;;;;;;;;;;;18.93;41.15;100280.16;4920564;28;98281;-68
2023/09/12 01:06:48;;;;;;;;;;;;;;;18.89;41.09;100283.53;4939907;28;97763;-67
2023/09/12 01:09:18;;;;;;;;;;;;;;;18.87;41.16;100283.06;4926906;28;98021;-75
2023/09/12 01:11:46;;;;;;;;;;;;;;;18.86;41.35;100289.66;4926490;28;97991;-75
2023/09/12 01:14:13;;;;;;;;;;;;;;;18.83;41.15;100293.03;4923106;28;98118;-74
2023/09/12 01:16:40;;;;;;;;;;;;;;;18.82;41.16;100288.72;4941119;28;98337;-74
2023/09/12 01:19:06;;;;;;;;;;;;;;;18.80;41.17;100287.44;4928350;28;98241;-68
2023/09/12 01:22:00;;;;;;;;;;;;;;;18.77;41.19;100288.88;4929348;28;98452;-74
2023/09/12 01:24:39;;;;;;;;;;;;;;;18.74;41.34;100289.50;4940178;28;98375;-74
2023/09/12 01:27:26;;;;;;;;;;;;;;;18.69;41.26;100283.41;4953105;28;98104;-75
2023/09/12 01:29:56;;;;;;;;;;;;;;;18.63;41.16;100283.59;4937558;28;98560;-67
2023/09/12 01:32:23;;;;;;;;;;;;;;;18.58;41.20;100291.94;4937150;28;97868;-67
2023/09/12 01:34:49;;;;;;;;;;;;;;;18.54;41.37;100295.66;4906961;28;99116;-67
2023/09/12 01:37:16;;;;;;;;;;;;;;;18.51;41.46;100290.84;4925658;28;99146;-75
2023/09/12 01:39:44;;;;;;;;;;;;;;;18.48;41.24;100286.84;4927379;28;97973;-75
2023/09/12 01:42:13;;;;;;;;;;;;;;;18.48;41.40;100291.50;4928031;28;98193;-76
2023/09/12 01:44:40;;;;;;;;;;;;;;;18.46;41.28;100291.81;4925344;28;98212;-68
2023/09/12 01:47:07;;;;;;;;;;;;;;;18.43;41.00;100291.66;4929537;28;100773;-68
2023/09/12 01:49:33;;;;;;;;;;;;;;;18.38;41.37;100287.16;4928815;28;98160;-68
2023/09/12 01:52:02;;;;;;;;;;;;;;;18.34;41.26;100283.50;4905265;28;98018;-75
2023/09/12 01:54:29;;;;;;;;;;;;;;;18.29;41.24;100291.84;4927542;28;99547;-68
2023/09/12 01:56:57;;;;;;;;;;;;;;;18.24;41.30;100287.38;4909698;28;98012;-75
2023/09/12 01:59:24;;;;;;;;;;;;;;;18.21;41.42;100292.66;4929316;28;98145;-75
2023/09/12 02:01:51;;;;;;;;;;;;;;;18.19;41.26;100283.97;4911320;28;101222;-74
2023/09/12 02:04:20;;;;;;;;;;;;;;;18.15;41.45;100297.47;4938331;28;98171;-68
2023/09/12 02:06:47;;;;;;;;;;;;;;;18.11;41.31;100294.56;4927843;28;98258;-74
2023/09/12 02:09:17;;;;;;;;;;;;;;;18.07;41.23;100298.28;4940973;28;98028;-74
2023/09/12 02:11:43;;;;;;;;;;;;;;;18.03;41.32;100294.59;4930383;28;100159;-74
2023/09/12 02:14:11;;;;;;;;;;;;;;;18.00;41.30;100289.75;4927228;28;98002;-74
2023/09/12 02:16:38;;;;;;;;;;;;;;;17.98;41.26;100289.31;4939294;28;98093;-68
2023/09/12 02:19:06;;;;;;;;;;;;;;;17.96;41.46;100289.63;4938414;28;98591;-75
2023/09/12 02:21:33;;;;;;;;;;;;;;;17.96;41.33;100299.72;4904251;28;98404;-74
2023/09/12 02:24:00;;;;;;;;;;;;;;;17.92;41.21;100302.31;4910928;28;98195;-68
2023/09/12 02:26:27;;;;;;;;;;;;;;;17.87;41.27;100292.34;4923413;28;97971;-68
2023/09/12 02:28:53;;;;;;;;;;;;;;;17.85;41.54;100302.78;4926502;28;98837;-75
2023/09/12 02:31:19;;;;;;;;;;;;;;;17.83;41.46;100294.09;4923998;28;98656;-68
2023/09/12 02:33:48;;;;;;;;;;;;;;;17.82;41.49;100295.22;4930242;28;98171;-74
2023/09/12 02:36:16;;;;;;;;;;;;;;;17.80;41.23;100302.09;4909368;28;98262;-74
2023/09/12 02:38:43;;;;;;;;;;;;;;;17.79;41.56;100289.59;4928124;28;100317;-74
2023/09/12 02:41:10;;;;;;;;;;;;;;;17.76;41.36;100292.97;4926177;28;98157;-67
2023/09/12 02:43:37;;;;;;;;;;;;;;;17.75;41.50;100289.44;4921921;28;98535;-68
2023/09/12 02:46:06;;;;;;;;;;;;;;;17.72;41.56;100287.31;4928620;28;97967;-75
2023/09/12 02:48:33;;;;;;;;;;;;;;;17.67;41.50;100292.94;4941635;28;98208;-68
2023/09/12 02:51:02;;;;;;;;;;;;;;;17.63;41.40;100297.41;4924906;28;98285;-74
2023/09/12 02:53:29;;;;;;;;;;;;;;;17.59;41.36;100294.53;4940046;28;99538;-68
2023/09/12 02:55:55;;;;;;;;;;;;;;;17.55;41.44;100290.81;4910284;28;98339;-68
2023/09/12 02:58:22;;;;;;;;;;;;;;;17.52;41.43;100288.72;4922105;28;98199;-75
2023/09/12 03:00:54;;;;;;;;;;;;;;;17.50;41.43;100290.19;4937697;28;98589;-75
2023/09/12 03:03:20;;;;;;;;;;;;;;;17.48;41.54;100297.88;4929846;28;98148;-68
2023/09/12 03:05:48;;;;;;;;;;;;;;;17.43;41.48;100294.16;4921712;28;98068;-73
2023/09/12 03:08:15;;;;;;;;;;;;;;;17.40;41.66;100297.53;4928594;28;99012;-68
2023/09/12 03:10:42;;;;;;;;;;;;;;;17.38;41.58;100297.06;4925746;28;98127;-74
2023/09/12 03:13:11;;;;;;;;;;;;;;;17.36;41.54;100295.75;4921439;28;100575;-67
2023/09/12 03:15:41;;;;;;;;;;;;;;;17.32;41.63;100295.59;4923876;28;98807;-74
2023/09/12 03:18:09;;;;;;;;;;;;;;;17.30;41.59;100297.84;4935451;28;98584;-74
2023/09/12 03:20:39;;;;;;;;;;;;;;;17.28;41.51;100288.38;4906624;28;97970;-68
2023/09/12 03:23:07;;;;;;;;;;;;;;;17.26;41.68;100296.06;4919560;28;98853;-74
2023/09/12 03:25:38;;;;;;;;;;;;;;;17.24;41.46;100295.56;4932350;28;98301;-74
2023/09/12 03:28:06;;;;;;;;;;;;;;;17.23;41.52;100297.50;4934413;28;98245;-68
2023/09/12 03:30:34;;;;;;;;;;;;;;;17.23;41.56;100294.75;4920273;28;100208;-69
2023/09/12 03:33:01;;;;;;;;;;;;;;;17.21;41.54;100291.53;4921287;28;98512;-74
2023/09/12 03:35:31;;;;;;;;;;;;;;;17.20;41.71;100298.09;4909155;28;98076;-74
2023/09/12 03:37:58;;;;;;;;;;;;;;;17.18;41.55;100298.44;4921474;28;98687;-68
2023/09/12 03:40:24;;;;;;;;;;;;;;;17.18;41.61;100289.47;4919656;28;98179;-68
2023/09/12 03:42:52;;;;;;;;;;;;;;;17.17;41.67;100296.84;4921231;28;98010;-74
2023/09/12 03:45:20;;;;;;;;;;;;;;;17.15;41.52;100287.38;4918484;28;97901;-74
2023/09/12 03:47:47;;;;;;;;;;;;;;;17.13;41.58;100290.41;4925691;28;98183;-74
2023/09/12 03:50:14;;;;;;;;;;;;;;;17.09;41.55;100294.84;4910287;28;99211;-74
2023/09/12 03:52:41;;;;;;;;;;;;;;;17.06;41.59;100283.81;4901865;28;98268;-75
2023/09/12 03:55:08;;;;;;;;;;;;;;;17.03;41.71;100296.13;4924988;28;98084;-68
2023/09/12 03:57:36;;;;;;;;;;;;;;;17.02;41.61;100291.81;4922127;28;98578;-68
2023/09/12 04:00:06;;;;;;;;;;;;;;;17.01;41.72;100283.94;4928375;28;100342;-68
2023/09/12 04:02:33;;;;;;;;;;;;;;;17.01;41.51;100287.47;4927789;28;97950;-68
2023/09/12 04:04:59;;;;;;;;;;;;;;;16.99;41.56;100288.91;4908971;28;99177;-74
2023/09/12 04:07:29;;;;;;;;;;;;;;;16.94;41.73;100298.03;4903481;28;98238;-74
2023/09/12 04:09:55;;;;;;;;;;;;;;;16.88;41.62;100296.53;4926731;28;98213;-68
2023/09/12 04:12:22;;;;;;;;;;;;;;;16.82;41.59;100293.16;4934721;28;98067;-68
2023/09/12 04:14:51;;;;;;;;;;;;;;;16.77;41.59;100295.22;4919778;28;97757;-74
2023/09/12 04:17:19;;;;;;;;;;;;;;;16.72;41.78;100296.13;4904201;28;98136;-68
2023/09/12 04:19:46;;;;;;;;;;;;;;;16.68;41.71;100306.81;4944369;28;98181;-74
2023/09/12 04:22:13;;;;;;;;;;;;;;;16.68;41.81;100306.81;4929013;28;98110;-68
2023/09/12 04:24:40;;;;;;;;;;;;;;;16.68;41.91;100298.66;4920494;28;98231;-74
2023/09/12 04:27:06;;;;;;;;;;;;;;;16.71;41.62;100301.88;4915345;28;100789;-74
2023/09/12 04:29:36;;;;;;;;;;;;;;;16.69;41.64;100302.97;4942487;28;100998;-74
2023/09/12 04:32:06;;;;;;;;;;;;;;;16.68;41.78;100286.97;4929713;28;98218;-68
2023/09/12 04:34:35;;;;;;;;;;;;;;;16.67;41.62;100294.34;4925174;28;100217;-74
2023/09/12 04:37:05;;;;;;;;;;;;;;;16.65;41.74;100299.28;4912134;28;98329;-69
2023/09/12 04:39:32;;;;;;;;;;;;;;;16.64;41.59;100297.69;4943937;28;98515;-74
2023/09/12 04:41:58;;;;;;;;;;;;;;;16.62;41.71;100299.09;4911284;28;98040;-68
2023/09/12 04:44:25;;;;;;;;;;;;;;;16.61;41.78;100286.59;4909875;28;97930;-68
2023/09/12 04:46:52;;;;;;;;;;;;;;;16.59;41.75;100297.81;4921452;28;98592;-68
2023/09/12 04:49:19;;;;;;;;;;;;;;;16.59;41.61;100292.38;4929379;28;101758;-69
2023/09/12 04:51:46;;;;;;;;;;;;;;;16.58;41.72;100289.94;4927224;28;98053;-74
2023/09/12 04:54:13;;;;;;;;;;;;;;;16.56;41.71;100290.28;4925485;28;98110;-75
2023/09/12 04:56:40;;;;;;;;;;;;;;;16.55;41.49;100294.13;4923755;28;98017;-74
2023/09/12 04:59:06;;;;;;;;;;;;;;;16.56;41.70;100292.19;4937581;28;98187;-69
2023/09/12 05:01:33;;;;;;;;;;;;;;;16.57;41.75;100289.16;4935416;28;98471;-67
2023/09/12 05:03:59;;;;;;;;;;;;;;;16.61;41.70;100292.06;4922836;28;97963;-75
2023/09/12 05:06:25;;;;;;;;;;;;;;;16.64;41.57;100296.88;4902640;28;98220;-68
2023/09/12 05:08:51;;;;;;;;;;;;;;;16.65;41.67;100295.75;4902400;28;100450;-69
2023/09/12 05:11:19;;;;;;;;;;;;;;;16.64;41.66;100297.69;4903566;28;98962;-74
2023/09/12 05:13:46;;;;;;;;;;;;;;;16.64;41.59;100292.22;4936622;28;99894;-74
2023/09/12 05:16:14;;;;;;;;;;;;;;;16.66;41.46;100302.78;4920007;28;98493;-74
2023/09/12 05:18:40;;;;;;;;;;;;;;;16.68;41.67;100297.84;4919849;28;100215;-74
2023/09/12 05:21:06;;;;;;;;;;;;;;;16.73;41.49;100296.91;4931411;28;107092;-68
2023/09/12 05:23:34;;;;;;;;;;;;;;;16.78;41.52;100294.09;4935153;28;98590;-74
2023/09/12 05:26:00;;;;;;;;;;;;;;;16.83;41.47;100302.94;4930351;28;98344;-68
2023/09/12 05:28:27;;;;;;;;;;;;;;;16.87;41.53;100301.19;4917534;28;98849;-74
2023/09/12 05:30:54;;;;;;;;;;;;;;;16.92;41.49;100303.78;4932814;28;100095;-74
2023/09/12 05:33:22;;;;;;;;;;;;;;;16.99;41.46;100307.97;4900280;28;98338;-74
2023/09/12 05:35:48;;;;;;;;;;;;;;;17.01;41.51;100309.25;4935443;28;99990;-74
2023/09/12 05:38:14;;;;;;;;;;;;;;;17.07;41.35;100312.66;4939190;28;98422;-68
2023/09/12 05:40:41;;;;;;;;;;;;;;;17.13;41.45;100311.38;4932231;28;98339;-75
2023/09/12 05:43:07;;;;;;;;;;;;;;;17.15;41.43;100312.69;4937596;28;98083;-69
2023/09/12 05:45:34;;;;;;;;;;;;;;;17.20;41.35;100314.44;4919394;28;98448;-74
2023/09/12 05:48:00;;;;;;;;;;;;;;;17.27;41.39;100316.72;4923887;28;98424;-69
2023/09/12 05:50:27;;;;;;;;;;;;;;;17.33;41.29;100313.56;4921501;28;99610;-73
2023/09/12 05:52:53;;;;;;;;;;;;;;;17.41;41.24;100318.22;4922029;28;97915;-67
2023/09/12 05:55:20;;;;;;;;;;;;;;;17.50;41.30;100320.97;4908086;28;98989;-73
2023/09/12 05:57:47;;;;;;;;;;;;;;;17.60;41.22;100322.56;4919912;28;99180;-68
2023/09/12 06:00:15;;;;;;;;;;;;;;;17.66;41.20;100315.88;4931436;28;99938;-68
2023/09/12 06:02:42;;;;;;;;;;;;;;;17.77;41.11;100319.13;4926710;28;98030;-74
2023/09/12 06:05:10;;;;;;;;;;;;;;;17.84;41.14;100322.97;4936997;28;99721;-68
2023/09/12 06:07:38;;;;;;;;;;;;;;;17.96;41.10;100316.91;4944133;28;110901;-74
2023/09/12 06:10:06;;;;;;;;;;;;;;;18.07;41.15;100328.28;4936190;28;98124;-74
2023/09/12 06:12:32;;;;;;;;;;;;;;;18.16;40.93;100326.38;4941983;28;98155;-68
2023/09/12 06:14:59;;;;;;;;;;;;;;;18.19;41.06;100322.16;4927794;28;98605;-68
2023/09/12 06:17:27;;;;;;;;;;;;;;;18.24;41.04;100327.47;4944619;28;98179;-74
2023/09/12 06:19:55;;;;;;;;;;;;;;;18.30;40.99;100334.38;4908090;28;100289;-74
2023/09/12 06:22:24;;;;;;;;;;;;;;;18.37;41.03;100331.97;4941006;28;99674;-74
2023/09/12 06:24:52;;;;;;;;;;;;;;;18.43;41.00;100324.41;4926481;28;99169;-69
2023/09/12 06:27:19;;;;;;;;;;;;;;;18.51;41.09;100334.50;4941240;28;98613;-69
2023/09/12 06:29:48;;;;;;;;;;;;;;;18.53;40.94;100326.81;4922283;28;98116;-69
2023/09/12 06:32:15;;;;;;;;;;;;;;;18.56;41.07;100326.97;4911603;28;98209;-69
2023/09/12 06:34:42;;;;;;;;;;;;;;;18.66;41.04;100336.72;4930449;28;99134;-69
2023/09/12 06:37:10;;;;;;;;;;;;;;;19.02;40.88;100347.28;4937350;28;99263;-68
2023/09/12 06:39:37;;;;;;;;;;;;;;;19.13;40.83;100348.50;4925928;28;98727;-69
2023/09/12 06:42:04;;;;;;;;;;;;;;;19.40;40.61;100345.66;4926809;28;98162;-69
2023/09/12 06:44:31;;;;;;;;;;;;;;;19.42;40.51;100343.41;4906576;28;98421;-69
2023/09/12 06:46:58;;;;;;;;;;;;;;;19.56;40.72;100347.50;4928612;28;98138;-68
2023/09/12 06:49:25;;;;;;;;;;;;;;;19.73;40.77;100345.81;4941896;28;97951;-75
2023/09/12 06:51:51;;;;;;;;;;;;;;;19.83;40.74;100337.22;4930362;28;98037;-75
2023/09/12 06:54:18;;;;;;;;;;;;;;;20.08;40.60;100335.44;4927585;28;98119;-68
2023/09/12 06:56:45;;;;;;;;;;;;;;;20.59;40.58;100342.44;4934475;28;98455;-75
2023/09/12 06:59:12;;;;;;;;;;;;;;;21.07;40.60;100338.19;4921694;28;98419;-68
2023/09/12 07:01:38;;;;;;;;;;;;;;;21.30;40.38;100337.75;4920812;28;100359;-67
2023/09/12 07:04:05;;;;;;;;;;;;;;;21.58;40.21;100342.56;4926620;28;98488;-75
2023/09/12 07:06:32;;;;;;;;;;;;;;;23.19;38.28;100343.22;4929223;28;98238;-68
2023/09/12 07:08:59;;;;;;;;;;;;;;;23.05;38.74;100342.03;4927695;28;98274;-75
2023/09/12 07:11:25;;;;;;;;;;;;;;;22.65;39.45;100346.50;4927760;28;99899;-74
2023/09/12 07:13:51;;;;;;;;;;;;;;;22.43;39.84;100344.31;4924503;28;98471;-67
2023/09/12 07:16:18;;;;;;;;;;;;;;;22.31;40.13;100345.16;4927321;28;109824;-67
2023/09/12 07:18:44;;;;;;;;;;;;;;;22.24;40.05;100345.78;4921549;28;97982;-75
2023/09/12 07:21:12;;;;;;;;;;;;;;;22.19;40.06;100336.97;4928143;28;100116;-67
2023/09/12 07:23:38;;;;;;;;;;;;;;;22.16;40.40;100340.41;4936939;28;98198;-75
2023/09/12 07:26:04;;;;;;;;;;;;;;;22.16;40.33;100343.94;4921622;28;99650;-75
2023/09/12 07:28:31;;;;;;;;;;;;;;;22.19;40.15;100342.47;4928059;28;98099;-75
2023/09/12 07:30:58;;;;;;;;;;;;;;;22.25;40.38;100352.06;4938085;28;98785;-67
2023/09/12 07:33:26;;;;;;;;;;;;;;;22.32;40.19;100345.94;4936372;28;98028;-75
2023/09/12 07:35:53;;;;;;;;;;;;;;;22.42;40.03;100353.69;4925299;28;99218;-67
2023/09/12 07:38:21;;;;;;;;;;;;;;;22.53;40.11;100343.81;4920984;28;98237;-67
2023/09/12 07:40:48;;;;;;;;;;;;;;;22.69;40.07;100349.34;4919905;28;98321;-75
2023/09/12 07:43:14;;;;;;;;;;;;;;;22.84;39.93;100340.31;4923866;28;97911;-67
2023/09/12 07:45:41;;;;;;;;;;;;;;;23.03;39.81;100345.94;4920669;28;98292;-67
2023/09/12 07:48:08;;;;;;;;;;;;;;;23.26;39.58;100351.63;4939916;28;98968;-67
2023/09/12 07:50:38;;;;;;;;;;;;;;;23.50;39.59;100358.88;4935835;28;98208;-67
2023/09/12 07:53:05;;;;;;;;;;;;;;;23.81;39.31;100345.44;4919548;28;98337;-75
2023/09/12 07:55:35;;;;;;;;;;;;;;;24.14;39.00;100345.78;4924307;28;99381;-67
2023/09/12 07:58:02;;;;;;;;;;;;;;;24.59;38.91;100352.56;4907046;28;98393;-67
2023/09/12 08:00:29;;;;;;;;;;;;;;;25.09;38.40;100350.75;4913176;28;98212;-67
2023/09/12 08:02:56;;;;;;;;;;;;;;;25.65;37.94;100358.31;4930853;28;98136;-75
2023/09/12 08:05:22;;;;;;;;;;;;;;;26.20;37.79;100355.94;4924246;28;98722;-76
2023/09/12 08:07:49;;;;;;;;;;;;;;;26.78;37.66;100353.84;4930908;28;98642;-67
2023/09/12 08:10:15;;;;;;;;;;;;;;;27.30;37.25;100358.28;4939036;28;98490;-67
2023/09/12 08:12:42;;;;;;;;;;;;;;;27.68;37.18;100358.97;4947292;28;99430;-72
2023/09/12 08:15:09;;;;;;;;;;;;;;;28.21;36.97;100360.44;4924488;28;100269;-75
2023/09/12 08:17:35;;;;;;;;;;;;;;;28.76;37.07;100361.03;4932680;28;98819;-67
2023/09/12 08:20:02;;;;;;;;;;;;;;;29.31;36.87;100362.69;4926484;28;98107;-67
2023/09/12 08:22:29;;;;;;;;;;;;;;;29.72;36.58;100365.84;4922971;28;99199;-76
2023/09/12 08:24:55;;;;;;;;;;;;;;;30.20;36.67;100358.97;4925101;28;98553;-76
2023/09/12 08:27:23;;;;;;;;;;;;;;;30.70;36.35;100353.16;4936812;28;98268;-67
2023/09/12 08:29:50;;;;;;;;;;;;;;;31.33;36.22;100351.13;4931511;28;98363;-75
2023/09/12 08:32:16;;;;;;;;;;;;;;;31.87;35.83;100350.59;4909834;28;98077;-75
2023/09/12 08:34:42;;;;;;;;;;;;;;;32.26;35.74;100348.09;4921371;28;98481;-67
2023/09/12 08:37:08;;;;;;;;;;;;;;;32.77;35.50;100342.63;4925368;28;99015;-75
2023/09/12 08:39:45;;;;;;;;;;;;;;;33.28;35.42;100337.06;4922385;28;98014;-67
2023/09/12 08:42:13;;;;;;;;;;;;;;;33.72;35.44;100345.06;4922019;28;99389;-67
2023/09/12 08:44:39;;;;;;;;;;;;;;;34.20;35.15;100340.13;4928358;28;98469;-66
2023/09/12 08:47:06;;;;;;;;;;;;;;;34.57;35.33;100335.31;4927994;28;101354;-67
2023/09/12 08:49:33;;;;;;;;;;;;;;;35.03;35.05;100337.03;4909941;28;100025;-75
2023/09/12 08:51:59;;;;;;;;;;;;;;;35.47;34.74;100336.72;4926120;28;99054;-76
2023/09/12 08:54:26;;;;;;;;;;;;;;;35.79;34.82;100339.44;4922133;28;98280;-67
2023/09/12 08:56:52;;;;;;;;;;;;;;;36.26;34.56;100338.13;4934089;28;98269;-67
2023/09/12 08:59:18;;;;;;;;;;;;;;;36.84;34.40;100333.09;4920701;28;98563;-76
2023/09/12 09:01:44;;;;;;;;;;;;;;;37.38;33.76;100334.13;4925122;28;98103;-67
2023/09/12 09:04:10;;;;;;;;;;;;;;;37.56;34.47;100334.28;4922411;28;98083;-76
2023/09/12 09:06:37;;;;;;;;;;;;;;;37.82;34.34;100334.19;4921164;28;127584;-67
2023/09/12 09:09:07;;;;;;;;;;;;;;;38.03;34.30;100339.00;4929877;28;99867;-67
2023/09/12 09:11:34;;;;;;;;;;;;;;;38.12;34.29;100329.06;4911321;28;98300;-76
2023/09/12 09:14:02;;;;;;;;;;;;;;;38.37;34.09;100331.72;4927638;28;99164;-67
2023/09/12 09:16:28;;;;;;;;;;;;;;;38.41;34.40;100332.38;4934905;28;99930;-76
2023/09/12 09:18:55;;;;;;;;;;;;;;;38.03;34.69;100326.97;4926408;28;98668;-67
2023/09/12 09:21:24;;;;;;;;;;;;;;;37.65;35.00;100322.34;4942157;28;97911;-76
2023/09/12 09:23:51;;;;;;;;;;;;;;;37.89;35.21;100321.88;4921072;28;98078;-77
2023/09/12 09:26:17;;;;;;;;;;;;;;;38.39;34.67;100312.34;4935703;28;98517;-67
2023/09/12 09:28:43;;;;;;;;;;;;;;;38.99;34.05;100316.78;4930509;28;99993;-76
2023/09/12 09:31:13;;;;;;;;;;;;;;;39.72;33.58;100310.41;4926689;28;99888;-76
2023/09/12 09:33:40;;;;;;;;;;;;;;;40.36;33.22;100309.44;4925143;28;98644;-67
2023/09/12 09:36:07;;;;;;;;;;;;;;;40.80;33.19;100312.56;4919268;28;98286;-68
2023/09/12 09:38:36;;;;;;;;;;;;;;;40.82;33.23;100304.38;4922545;28;99050;-67
2023/09/12 09:41:06;;;;;;;;;;;;;;;41.05;33.30;100305.66;4935433;28;100477;-76
2023/09/12 09:43:33;;;;;;;;;;;;;;;41.14;33.43;100307.63;4910031;28;98480;-67
2023/09/12 09:45:59;;;;;;;;;;;;;;;41.72;32.96;100302.59;4944371;28;100242;-76
2023/09/12 09:48:26;;;;;;;;;;;;;;;41.66;33.48;100303.28;4928154;28;98186;-76
2023/09/12 09:50:53;;;;;;;;;;;;;;;41.53;33.61;100307.66;4942367;28;98761;-76
2023/09/12 09:53:32;;;;;;;;;;;;;;;41.65;33.26;100303.75;4930955;28;98688;-76
2023/09/12 09:56:09;;;;;;;;;;;;;;;41.45;33.87;100295.94;4936551;28;98544;-68
2023/09/12 09:58:35;;;;;;;;;;;;;;;41.68;33.62;100297.91;4944013;28;99629;-68
2023/09/12 10:01:03;;;;;;;;;;;;;;;41.83;33.58;100292.28;4941103;28;129455;-68
2023/09/12 10:03:29;;;;;;;;;;;;;;;41.92;33.74;100288.56;4913876;28;99289;-76
2023/09/12 10:05:56;;;;;;;;;;;;;;;41.99;33.37;100296.66;4928586;28;99564;-76
2023/09/12 10:08:22;;;;;;;;;;;;;;;42.21;33.40;100298.28;4924298;28;99639;-76
2023/09/12 10:10:48;;;;;;;;;;;;;;;42.36;33.15;100293.41;4919734;28;98397;-77
2023/09/12 10:13:15;;;;;;;;;;;;;;;42.54;33.46;100295.22;4926296;28;98871;-76
2023/09/12 10:15:41;;;;;;;;;;;;;;;42.01;33.45;100290.50;4935710;28;98529;-68
2023/09/12 10:18:09;;;;;;;;;;;;;;;42.05;33.33;100291.88;4923837;28;103415;-76
2023/09/12 10:21:00;;;;;;;;;;;;;;;42.12;33.50;100285.81;4919497;28;99965;-75
2023/09/12 10:23:36;;;;;;;;;;;;;;;42.23;33.14;100284.44;4936309;28;98380;-69
2023/09/12 10:26:03;;;;;;;;;;;;;;;42.04;33.30;100273.34;4934877;28;97938;-69
2023/09/12 10:28:29;;;;;;;;;;;;;;;42.37;32.88;100290.09;4924908;28;99538;-69
2023/09/12 10:30:55;;;;;;;;;;;;;;;42.32;33.01;100281.50;4926019;28;98466;-75
2023/09/12 10:33:21;;;;;;;;;;;;;;;42.38;33.45;100282.38;4919331;28;98619;-69
2023/09/12 10:35:47;;;;;;;;;;;;;;;42.48;33.34;100271.69;4926924;28;98833;-70
2023/09/12 10:38:14;;;;;;;;;;;;;;;42.50;33.22;100274.84;4923848;28;98448;-75
2023/09/12 10:40:41;;;;;;;;;;;;;;;42.09;33.39;100272.66;4919669;28;99473;-74
2023/09/12 10:43:09;;;;;;;;;;;;;;;41.88;33.49;100268.97;4920779;28;98033;-75
2023/09/12 10:45:36;;;;;;;;;;;;;;;41.45;33.89;100264.84;4927505;28;98564;-75
2023/09/12 10:48:03;;;;;;;;;;;;;;;41.52;33.61;100270.13;4940482;28;100075;-75
2023/09/12 10:50:30;;;;;;;;;;;;;;;41.47;33.83;100265.16;4922871;28;98382;-75
2023/09/12 10:53:07;;;;;;;;;;;;;;;41.37;34.10;100272.13;4927409;28;98524;-70
2023/09/12 10:55:34;;;;;;;;;;;;;;;40.99;34.10;100265.19;4921705;28;98029;-75
2023/09/12 10:58:04;;;;;;;;;;;;;;;40.87;34.03;100271.84;4925114;28;98262;-74
2023/09/12 11:00:34;;;;;;;;;;;;;;;41.36;33.83;100267.75;4925406;28;98085;-74
2023/09/12 11:03:20;;;;;;;;;;;;;;;41.30;33.86;100272.50;4934925;28;98965;-70
2023/09/12 11:05:53;;;;;;;;;;;;;;;41.37;33.70;100272.91;4938231;28;99014;-75
2023/09/12 11:08:19;;;;;;;;;;;;;;;41.65;33.51;100272.66;4908806;28;98775;-70
2023/09/12 11:11:05;;;;;;;;;;;;;;;42.04;33.17;100270.50;4924618;28;99515;-70
2023/09/12 11:13:40;;;;;;;;;;;;;;;42.34;32.84;100271.25;4933037;28;98366;-75
2023/09/12 11:16:14;;;;;;;;;;;;;;;41.97;33.47;100264.47;4923096;28;98837;-70
2023/09/12 11:19:11;;;;;;;;;;;;;;;41.85;33.31;100263.50;4918809;28;98133;-75
2023/09/12 11:21:37;;;;;;;;;;;;;;;41.63;33.67;100261.06;4936982;28;98236;-75
2023/09/12 11:24:03;;;;;;;;;;;;;;;41.51;33.66;100262.91;4928324;28;114921;-74
2023/09/12 11:26:30;;;;;;;;;;;;;;;41.39;33.92;100259.06;4926400;28;99270;-75
2023/09/12 11:28:56;;;;;;;;;;;;;;;40.74;34.12;100255.16;4927536;28;98353;-71
2023/09/12 11:31:28;;;;;;;;;;;;;;;40.28;34.72;100246.16;4926527;28;98006;-70
2023/09/12 11:33:54;;;;;;;;;;;;;;;40.29;34.51;100242.09;4923977;28;98604;-75
2023/09/12 11:36:21;;;;;;;;;;;;;;;40.33;34.33;100240.66;4924928;28;98155;-74
2023/09/12 11:38:50;;;;;;;;;;;;;;;40.27;34.23;100241.78;4920997;28;98327;-70
2023/09/12 11:41:44;;;;;;;;;;;;;;;40.22;34.39;100237.56;4923099;28;98635;-74
2023/09/12 11:44:10;;;;;;;;;;;;;;;40.34;34.15;100235.78;4942437;28;98410;-70
2023/09/12 11:46:36;;;;;;;;;;;;;;;40.29;34.33;100233.63;4934578;28;99508;-72
2023/09/12 11:49:02;;;;;;;;;;;;;;;39.98;34.61;100231.84;4927593;28;98505;-73
2023/09/12 11:51:29;;;;;;;;;;;;;;;39.86;34.63;100230.03;4924059;28;98119;-75
2023/09/12 11:53:58;;;;;;;;;;;;;;;39.74;34.77;100231.78;4923405;28;98358;-75
2023/09/12 11:56:24;;;;;;;;;;;;;;;39.66;34.86;100222.84;4921956;28;98208;-75
2023/09/12 11:58:50;;;;;;;;;;;;;;;39.58;34.83;100224.44;4925555;28;99166;-70
2023/09/12 12:01:17;;;;;;;;;;;;;;;39.51;34.95;100219.13;4920825;28;98658;-75
2023/09/12 12:03:43;;;;;;;;;;;;;;;39.32;34.81;100223.22;4936934;28;99340;-70
2023/09/12 12:06:09;;;;;;;;;;;;;;;39.32;34.83;100218.38;4919680;28;98686;-70
2023/09/12 12:08:36;;;;;;;;;;;;;;;39.39;34.86;100223.69;4920664;28;98378;-75
2023/09/12 12:11:03;;;;;;;;;;;;;;;39.40;34.93;100225.25;4906519;28;98162;-75
2023/09/12 12:13:30;;;;;;;;;;;;;;;39.36;34.80;100223.84;4926027;28;98128;-74
2023/09/12 12:15:56;;;;;;;;;;;;;;;39.32;34.86;100220.41;4923932;28;98060;-74
2023/09/12 12:18:22;;;;;;;;;;;;;;;39.34;34.96;100223.50;4927657;28;98334;-71
2023/09/12 12:20:48;;;;;;;;;;;;;;;39.28;35.05;100220.56;4942134;28;100186;-70
2023/09/12 12:23:14;;;;;;;;;;;;;;;39.21;35.18;100213.16;4930685;28;98538;-75
2023/09/12 12:25:41;;;;;;;;;;;;;;;39.13;34.77;100208.34;4938858;28;129808;-75
2023/09/12 12:28:08;;;;;;;;;;;;;;;39.04;35.05;100209.13;4946866;28;99306;-74
2023/09/12 12:30:35;;;;;;;;;;;;;;;38.89;35.28;100217.41;4934468;28;98230;-70
2023/09/12 12:33:06;;;;;;;;;;;;;;;38.72;35.62;100202.06;4924563;28;98013;-70
2023/09/12 12:35:32;;;;;;;;;;;;;;;38.62;35.50;100209.69;4931433;28;98903;-70
2023/09/12 12:37:58;;;;;;;;;;;;;;;38.53;35.06;100199.19;4911739;28;99013;-74